Time;durP1;ratioP1;P1;durP2;ratioP2;P2;SDS_P1;SDS_P2;PMS_P1;PMS_P2;Temp;Humidity;BMP_temperature;BMP_pressure;BME280_temperature;BME280_humidity;BME280_pressure;Samples;Min_cycle;Max_cycle;Signal;HPM_P1;HPM_P2
2021/05/13 00:01:55;;;;;;;7.85;3.20;;;10.00;86.90;;;;;;5009952;28;20087;-74
2021/05/13 00:04:21;;;;;;;3.60;2.38;;;10.00;86.90;;;;;;5009861;28;20026;-74
2021/05/13 00:06:47;;;;;;;5.97;2.83;;;10.00;87.10;;;;;;5009780;28;20478;-74
2021/05/13 00:09:12;;;;;;;5.40;2.40;;;10.00;87.00;;;;;;5009888;28;20049;-74
2021/05/13 00:11:42;;;;;;;6.07;2.50;;;10.10;87.20;;;;;;5010202;28;20057;-74
2021/05/13 00:14:08;;;;;;;5.57;2.47;;;10.10;87.10;;;;;;5013143;28;20033;-74
2021/05/13 00:16:35;;;;;;;3.85;2.55;;;10.10;86.90;;;;;;5013135;28;20018;-75
2021/05/13 00:19:06;;;;;;;8.82;2.95;;;10.10;86.70;;;;;;5013143;28;20030;-75
2021/05/13 00:21:32;;;;;;;3.95;2.17;;;10.20;86.80;;;;;;5013095;28;20018;-74
2021/05/13 00:23:58;;;;;;;4.55;2.53;;;10.10;86.70;;;;;;5012968;28;20390;-74
2021/05/13 00:26:37;;;;;;;5.32;3.50;;;10.10;86.60;;;;;;5012823;28;20109;-73
2021/05/13 00:29:12;;;;;;;5.85;3.30;;;10.10;86.60;;;;;;5013032;28;20056;-74
2021/05/13 00:31:38;;;;;;;8.70;3.80;;;10.10;86.50;;;;;;5012847;28;20090;-74
2021/05/13 00:34:04;;;;;;;9.13;3.28;;;10.10;86.50;;;;;;5012794;28;20037;-75
2021/05/13 00:36:32;;;;;;;7.85;3.47;;;10.10;86.40;;;;;;5012812;28;20041;-75
2021/05/13 00:38:59;;;;;;;5.20;2.45;;;10.00;85.80;;;;;;5012791;28;20018;-74
2021/05/13 00:41:26;;;;;;;3.63;1.92;;;10.00;85.70;;;;;;5012712;28;20051;-75
2021/05/13 00:43:51;;;;;;;5.30;2.45;;;10.00;85.90;;;;;;5012371;28;20073;-75
2021/05/13 00:46:18;;;;;;;4.45;2.50;;;9.90;86.30;;;;;;5013560;28;20103;-78
2021/05/13 00:48:46;;;;;;;9.07;2.58;;;9.90;86.40;;;;;;5016209;28;20033;-76
2021/05/13 00:51:13;;;;;;;3.58;2.20;;;10.00;86.50;;;;;;5015879;28;20050;-77
2021/05/13 00:53:45;;;;;;;7.18;2.40;;;10.00;86.50;;;;;;5014763;28;20022;-75
2021/05/13 00:56:12;;;;;;;3.67;2.10;;;9.90;86.60;;;;;;5014192;28;20022;-76
2021/05/13 00:58:43;;;;;;;8.45;2.35;;;9.90;86.70;;;;;;5014528;28;20034;-75
2021/05/13 01:01:12;;;;;;;5.97;2.35;;;9.80;86.70;;;;;;5013747;28;20014;-77
2021/05/13 01:03:38;;;;;;;3.20;2.20;;;9.90;86.80;;;;;;5013125;28;20483;-75
2021/05/13 01:06:05;;;;;;;7.55;2.80;;;9.80;86.70;;;;;;5013429;28;20033;-75
2021/05/13 01:08:31;;;;;;;9.93;3.13;;;9.80;86.80;;;;;;5012832;28;20030;-76
2021/05/13 01:10:57;;;;;;;6.15;2.47;;;9.80;86.80;;;;;;5012536;28;20018;-76
2021/05/13 01:13:24;;;;;;;3.97;2.28;;;9.70;86.90;;;;;;5012288;28;20060;-75
2021/05/13 01:16:22;;;;;;;6.10;2.40;;;9.70;87.30;;;;;;5012183;28;20033;-75
2021/05/13 01:18:37;;;;;;;4.63;2.25;;;9.60;87.40;;;;;;5011942;28;20038;-74
2021/05/13 01:21:03;;;;;;;3.90;2.17;;;9.60;87.40;;;;;;5012178;28;20060;-79
2021/05/13 01:23:29;;;;;;;4.53;1.65;;;9.60;87.20;;;;;;5011148;28;20493;-79
2021/05/13 01:25:56;;;;;;;4.85;1.80;;;9.60;87.40;;;;;;5012112;28;20030;-81
2021/05/13 01:28:27;;;;;;;3.85;1.98;;;9.50;87.10;;;;;;5012011;28;20523;-79
2021/05/13 01:30:54;;;;;;;2.97;1.55;;;9.50;87.20;;;;;;5012033;28;20083;-78
2021/05/13 01:33:22;;;;;;;3.17;1.50;;;9.50;87.20;;;;;;5011858;28;20444;-74
2021/05/13 01:35:49;;;;;;;3.67;1.75;;;9.50;87.20;;;;;;5011923;28;20018;-76
2021/05/13 01:38:17;;;;;;;3.67;2.13;;;9.50;87.20;;;;;;5011922;28;20033;-73
2021/05/13 01:40:52;;;;;;;5.35;2.33;;;9.50;87.10;;;;;;5015383;28;20026;-75
2021/05/13 01:43:18;;;;;;;3.53;2.08;;;9.50;87.00;;;;;;5019337;28;20033;-74
2021/05/13 01:45:43;;;;;;;3.55;2.03;;;9.50;86.90;;;;;;5011843;28;20078;-74
2021/05/13 01:48:09;;;;;;;4.88;2.17;;;9.50;87.60;;;;;;5011533;28;20033;-76
2021/05/13 01:50:35;;;;;;;7.18;2.33;;;9.50;86.80;;;;;;5011656;28;20375;-74
2021/05/13 01:53:06;;;;;;;5.20;2.80;;;9.50;86.70;;;;;;5011597;28;20112;-76
2021/05/13 01:55:35;;;;;;;5.30;2.33;;;9.50;86.70;;;;;;5011713;28;20018;-75
2021/05/13 01:58:01;;;;;;;2.13;1.92;;;9.40;86.50;;;;;;5011502;28;20026;-74
2021/05/13 02:00:27;;;;;;;3.35;2.10;;;9.40;86.40;;;;;;5011430;28;20470;-74
2021/05/13 02:02:53;;;;;;;4.68;1.88;;;9.40;86.40;;;;;;5011498;28;20033;-74
2021/05/13 02:05:20;;;;;;;3.83;2.10;;;9.40;86.20;;;;;;5010195;28;20369;-74
2021/05/13 02:07:47;;;;;;;4.05;1.70;;;9.50;86.30;;;;;;5011268;28;20034;-75
2021/05/13 02:10:13;;;;;;;3.08;1.80;;;9.40;86.20;;;;;;5011395;28;20466;-74
2021/05/13 02:12:40;;;;;;;2.53;1.55;;;9.30;86.50;;;;;;5011364;28;20486;-74
2021/05/13 02:15:09;;;;;;;3.25;1.70;;;9.30;86.70;;;;;;5011137;28;20474;-74
2021/05/13 02:17:34;;;;;;;4.57;1.77;;;9.20;86.50;;;;;;5010980;28;20087;-74
2021/05/13 02:20:00;;;;;;;1.98;1.58;;;9.20;86.80;;;;;;5011111;28;20026;-74
2021/05/13 02:22:25;;;;;;;2.58;1.50;;;9.20;87.00;;;;;;5011184;28;20355;-74
2021/05/13 02:24:51;;;;;;;5.45;2.00;;;9.10;87.10;;;;;;5011069;28;20021;-76
2021/05/13 02:27:16;;;;;;;4.03;1.42;;;9.10;87.20;;;;;;5010995;28;20116;-75
2021/05/13 02:29:42;;;;;;;3.00;1.42;;;9.10;87.30;;;;;;5011040;28;20049;-77
2021/05/13 02:32:07;;;;;;;1.85;1.17;;;9.10;87.20;;;;;;5011031;28;20022;-75
2021/05/13 02:34:33;;;;;;;4.32;1.63;;;9.10;87.10;;;;;;5025941;28;20025;-76
2021/05/13 02:36:58;;;;;;;2.35;1.50;;;9.20;86.80;;;;;;5010877;28;20424;-77
2021/05/13 02:39:24;;;;;;;3.05;1.52;;;9.20;86.70;;;;;;5010901;28;20025;-77
2021/05/13 02:41:50;;;;;;;3.10;1.38;;;9.20;86.90;;;;;;5010875;28;20033;-76
2021/05/13 02:44:15;;;;;;;3.40;1.35;;;9.10;87.10;;;;;;5010555;28;20075;-77
2021/05/13 02:46:41;;;;;;;2.88;1.55;;;9.10;87.50;;;;;;5010765;28;20113;-77
2021/05/13 02:49:06;;;;;;;3.03;1.63;;;9.10;87.70;;;;;;5010718;28;20038;-76
2021/05/13 02:51:32;;;;;;;5.45;2.08;;;9.10;87.70;;;;;;5010725;28;20025;-76
2021/05/13 02:53:57;;;;;;;3.97;2.10;;;9.20;87.50;;;;;;5010567;28;20030;-77
2021/05/13 02:56:23;;;;;;;5.35;2.10;;;9.10;87.60;;;;;;5010624;28;20448;-76
2021/05/13 02:58:50;;;;;;;2.13;1.30;;;9.10;87.40;;;;;;5010840;28;20030;-76
2021/05/13 03:03:48;;;;;;;2.33;1.23;;;9.00;88.10;;;;;;5010782;28;20029;-76
2021/05/13 03:06:13;;;;;;;3.33;1.27;;;9.00;87.40;;;;;;5010365;28;20025;-76
2021/05/13 03:08:39;;;;;;;2.95;1.25;;;9.00;87.00;;;;;;5010489;28;20059;-76
2021/05/13 03:11:05;;;;;;;1.65;0.93;;;9.00;87.00;;;;;;5010269;28;20026;-76
2021/05/13 03:13:30;;;;;;;4.07;1.30;;;9.00;87.00;;;;;;5010394;28;20030;-76
2021/05/13 03:15:56;;;;;;;2.72;1.00;;;9.00;87.10;;;;;;5010493;28;20513;-76
2021/05/13 03:18:25;;;;;;;3.70;1.20;;;9.10;87.10;;;;;;5010410;28;20062;-75
2021/05/13 03:20:56;;;;;;;1.80;1.10;;;9.10;86.70;;;;;;5010313;28;20026;-75
2021/05/13 03:23:29;;;;;;;2.63;1.15;;;9.10;86.40;;;;;;5010262;28;20033;-75
2021/05/13 03:26:01;;;;;;;1.70;1.17;;;9.10;86.20;;;;;;5010288;28;20022;-75
2021/05/13 03:28:27;;;;;;;2.80;1.60;;;9.10;86.20;;;;;;5010471;28;20042;-75
2021/05/13 03:30:52;;;;;;;2.53;1.52;;;9.10;86.20;;;;;;5010218;28;20025;-75
2021/05/13 03:33:18;;;;;;;3.33;1.77;;;9.10;86.30;;;;;;5010083;28;20030;-75
2021/05/13 03:35:45;;;;;;;4.47;1.83;;;9.00;86.30;;;;;;5010116;28;20056;-75
2021/05/13 03:38:11;;;;;;;4.25;2.30;;;9.00;86.50;;;;;;5010155;28;20066;-75
2021/05/13 03:40:38;;;;;;;2.53;1.42;;;8.90;86.80;;;;;;5010004;28;20067;-77
2021/05/13 03:43:04;;;;;;;2.03;1.55;;;8.90;87.00;;;;;;5009918;28;20049;-77
2021/05/13 03:45:32;;;;;;;3.15;1.90;;;8.90;87.00;;;;;;5010259;28;20083;-76
2021/05/13 03:48:02;;;;;;;2.13;1.40;;;8.80;86.90;;;;;;5012282;28;20041;-77
2021/05/13 03:50:29;;;;;;;3.60;1.60;;;8.80;87.00;;;;;;5013630;28;20118;-76
2021/05/13 03:52:55;;;;;;;2.72;1.17;;;8.80;86.90;;;;;;5013641;28;20107;-77
2021/05/13 03:55:20;;;;;;;5.70;1.73;;;8.70;86.80;;;;;;5013541;28;20452;-77
2021/05/13 03:57:46;;;;;;;3.15;2.03;;;8.70;86.90;;;;;;5013411;28;20034;-77
2021/05/13 04:00:14;;;;;;;2.97;1.63;;;8.70;87.00;;;;;;5013404;28;20381;-77
2021/05/13 04:02:40;;;;;;;2.78;1.48;;;8.60;87.00;;;;;;5013502;28;20033;-77
2021/05/13 04:05:06;;;;;;;3.33;1.50;;;8.50;87.30;;;;;;5013275;28;20105;-75
2021/05/13 04:07:34;;;;;;;3.95;2.13;;;8.50;87.50;;;;;;5017403;28;20368;-74
2021/05/13 04:10:03;;;;;;;5.28;2.10;;;8.40;87.60;;;;;;5013490;28;20056;-76
2021/05/13 04:12:28;;;;;;;5.18;1.73;;;8.40;88.00;;;;;;5013124;28;20029;-76
2021/05/13 04:14:55;;;;;;;4.55;2.20;;;8.40;88.00;;;;;;5013041;28;20034;-76
2021/05/13 04:17:21;;;;;;;3.72;1.38;;;8.40;88.20;;;;;;5013143;28;20030;-76
2021/05/13 04:19:46;;;;;;;3.55;1.92;;;8.40;88.20;;;;;;5013172;28;20026;-76
2021/05/13 04:22:13;;;;;;;3.92;1.98;;;8.40;88.20;;;;;;5013048;28;20037;-76
2021/05/13 04:24:38;;;;;;;3.22;1.90;;;8.30;88.10;;;;;;5012932;28;20026;-76
2021/05/13 04:27:05;;;;;;;3.67;2.10;;;8.30;88.10;;;;;;5012744;28;20375;-75
2021/05/13 04:29:30;;;;;;;6.07;2.03;;;8.30;88.20;;;;;;5012943;28;20029;-75
2021/05/13 04:31:56;;;;;;;5.65;2.40;;;8.30;88.30;;;;;;5012963;28;20079;-75
2021/05/13 04:34:21;;;;;;;5.47;2.10;;;8.20;88.20;;;;;;5012645;28;20022;-76
2021/05/13 04:36:47;;;;;;;6.30;2.35;;;8.20;88.30;;;;;;5011566;28;20440;-76
2021/05/13 04:39:12;;;;;;;5.00;1.90;;;8.20;88.30;;;;;;5011531;28;20098;-76
2021/05/13 04:41:40;;;;;;;3.80;2.10;;;8.30;88.20;;;;;;5012714;28;20018;-75
2021/05/13 04:44:06;;;;;;;5.30;2.10;;;8.30;87.80;;;;;;5012405;28;20060;-75
2021/05/13 04:46:33;;;;;;;4.82;2.28;;;8.20;87.60;;;;;;5012576;28;20501;-75
2021/05/13 04:51:31;;;;;;;6.55;2.17;;;8.20;87.50;;;;;;5012561;28;20082;-76
2021/05/13 04:53:57;;;;;;;3.65;2.20;;;8.30;87.80;;;;;;5012434;28;20543;-75
2021/05/13 04:56:24;;;;;;;5.85;2.38;;;8.30;87.40;;;;;;5012633;28;20386;-75
2021/05/13 04:58:49;;;;;;;7.85;2.15;;;8.30;87.30;;;;;;5011249;28;20025;-76
2021/05/13 05:01:16;;;;;;;4.50;2.40;;;8.40;87.10;;;;;;5012436;28;20022;-76
2021/05/13 05:03:42;;;;;;;5.18;2.17;;;8.40;87.00;;;;;;5012518;28;20033;-76
2021/05/13 05:06:10;;;;;;;3.58;2.08;;;8.50;86.90;;;;;;5012413;28;20053;-77
2021/05/13 05:08:36;;;;;;;7.30;2.50;;;8.60;86.70;;;;;;5011135;28;20121;-77
2021/05/13 05:11:01;;;;;;;7.43;2.80;;;8.50;86.40;;;;;;5011132;28;20091;-75
2021/05/13 05:13:28;;;;;;;3.20;2.38;;;8.50;86.30;;;;;;5012257;28;20026;-75
2021/05/13 05:15:54;;;;;;;6.95;2.65;;;8.60;86.30;;;;;;5011017;28;20018;-74
2021/05/13 05:18:21;;;;;;;6.80;2.80;;;8.50;86.40;;;;;;5011800;28;20022;-74
2021/05/13 05:20:47;;;;;;;4.68;2.50;;;8.50;86.50;;;;;;5012717;28;20030;-74
2021/05/13 05:23:13;;;;;;;3.97;2.45;;;8.60;86.40;;;;;;5012117;28;20105;-74
2021/05/13 05:25:39;;;;;;;5.43;2.58;;;8.70;86.40;;;;;;5012044;28;20030;-74
2021/05/13 05:28:06;;;;;;;5.10;2.80;;;8.70;86.00;;;;;;5012091;28;20363;-75
2021/05/13 05:30:33;;;;;;;4.85;2.47;;;8.80;85.80;;;;;;5012077;28;20075;-74
2021/05/13 05:33:10;;;;;;;8.57;2.50;;;8.90;85.60;;;;;;5012039;28;20546;-74
2021/05/13 05:35:37;;;;;;;5.00;2.47;;;9.00;85.00;;;;;;5012122;28;20029;-76
2021/05/13 05:38:04;;;;;;;5.35;2.60;;;9.10;84.60;;;;;;5011993;28;20022;-77
2021/05/13 05:40:30;;;;;;;6.78;2.70;;;9.20;84.30;;;;;;5011920;28;20029;-76
2021/05/13 05:42:56;;;;;;;5.75;2.78;;;9.30;84.00;;;;;;5011877;28;20059;-77
2021/05/13 05:45:22;;;;;;;6.40;2.75;;;9.30;83.90;;;;;;5010261;28;20490;-77
2021/05/13 05:47:50;;;;;;;6.05;2.72;;;9.50;83.70;;;;;;5010482;28;20034;-77
2021/05/13 05:50:17;;;;;;;5.43;2.83;;;9.60;83.30;;;;;;5011652;28;20030;-76
2021/05/13 05:52:43;;;;;;;4.30;2.63;;;9.80;82.80;;;;;;5011707;28;20109;-77
2021/05/13 05:55:09;;;;;;;4.00;3.10;;;9.90;82.40;;;;;;5010531;28;20093;-76
2021/05/13 05:57:35;;;;;;;5.65;3.47;;;10.10;81.90;;;;;;5011097;28;20026;-77
2021/05/13 06:00:02;;;;;;;6.57;2.97;;;10.10;81.20;;;;;;5010873;28;20018;-78
2021/05/13 06:02:28;;;;;;;4.90;2.90;;;10.30;81.10;;;;;;5010901;28;20030;-77
2021/05/13 06:04:54;;;;;;;7.07;3.38;;;10.50;80.40;;;;;;5011007;28;20051;-77
2021/05/13 06:07:20;;;;;;;3.90;2.17;;;10.60;80.20;;;;;;5010806;28;20028;-77
2021/05/13 06:09:46;;;;;;;7.35;2.33;;;10.80;79.90;;;;;;5011059;28;20366;-77
2021/05/13 06:12:13;;;;;;;5.50;2.10;;;11.10;79.50;;;;;;5011213;28;20021;-76
2021/05/13 06:14:39;;;;;;;3.35;2.30;;;11.30;77.90;;;;;;5011492;28;20026;-77
2021/05/13 06:17:04;;;;;;;4.43;1.77;;;11.40;77.00;;;;;;5011618;28;20026;-76
2021/05/13 06:19:30;;;;;;;2.35;1.98;;;11.70;76.70;;;;;;5012952;28;20037;-77
2021/05/13 06:21:56;;;;;;;3.72;1.75;;;11.80;76.40;;;;;;5015452;28;20034;-77
2021/05/13 06:24:21;;;;;;;3.22;1.60;;;12.00;76.40;;;;;;5013011;28;20033;-77
2021/05/13 06:26:58;;;;;;;3.53;1.55;;;12.30;76.00;;;;;;5015920;28;20087;-74
2021/05/13 06:29:24;;;;;;;3.45;1.70;;;12.50;74.60;;;;;;5027987;28;20482;-76
2021/05/13 06:31:49;;;;;;;6.15;1.88;;;12.80;73.70;;;;;;5013165;28;20101;-75
2021/05/13 06:34:15;;;;;;;4.38;1.67;;;12.90;72.10;;;;;;5011345;28;20058;-75
2021/05/13 06:36:41;;;;;;;4.55;1.95;;;13.10;70.60;;;;;;5012032;28;20018;-80
2021/05/13 06:39:07;;;;;;;2.25;1.15;;;13.20;69.10;;;;;;5010916;28;20022;-75
2021/05/13 06:41:33;;;;;;;2.72;1.10;;;13.30;69.00;;;;;;5011066;28;20041;-78
2021/05/13 06:43:58;;;;;;;2.70;1.00;;;13.50;68.80;;;;;;5010945;28;20049;-79
2021/05/13 06:46:25;;;;;;;2.35;1.17;;;13.60;66.80;;;;;;5013185;28;20076;-76
2021/05/13 06:48:51;;;;;;;3.65;1.33;;;13.60;66.10;;;;;;5009547;28;20085;-76
2021/05/13 06:51:19;;;;;;;6.47;1.65;;;13.70;66.10;;;;;;5010322;28;20491;-76
2021/05/13 06:53:45;;;;;;;2.97;1.95;;;13.70;65.30;;;;;;5010338;28;20030;-82
2021/05/13 06:56:10;;;;;;;5.88;1.70;;;13.80;65.50;;;;;;5013707;28;20114;-82
2021/05/13 06:58:36;;;;;;;5.60;1.20;;;13.80;65.80;;;;;;5013782;28;20474;-76
2021/05/13 07:01:02;;;;;;;5.45;1.70;;;13.80;64.10;;;;;;5012001;28;20078;-81
2021/05/13 07:03:27;;;;;;;4.28;1.23;;;13.80;62.90;;;;;;5016525;28;20101;-79
2021/05/13 07:05:53;;;;;;;3.22;1.45;;;13.70;63.10;;;;;;5013224;28;20029;-81
2021/05/13 07:08:19;;;;;;;4.60;1.27;;;13.70;60.90;;;;;;5011719;28;20042;-83
2021/05/13 07:10:44;;;;;;;2.20;1.10;;;13.80;60.50;;;;;;5010520;28;20033;-81
2021/05/13 07:13:10;;;;;;;4.88;1.23;;;13.70;60.30;;;;;;5009333;28;20029;-80
2021/05/13 07:15:36;;;;;;;5.93;1.30;;;13.60;60.00;;;;;;5010581;28;20478;-77
2021/05/13 07:18:02;;;;;;;3.55;1.40;;;13.70;59.30;;;;;;5010578;28;20030;-78
2021/05/13 07:20:28;;;;;;;2.88;1.23;;;13.70;60.20;;;;;;5011121;28;20026;-83
2021/05/13 07:22:54;;;;;;;2.85;1.00;;;13.50;61.00;;;;;;5009882;28;20022;-83
2021/05/13 07:25:20;;;;;;;4.53;1.33;;;13.60;60.50;;;;;;5010451;28;20029;-82
2021/05/13 07:27:46;;;;;;;2.45;1.30;;;13.60;60.20;;;;;;5010292;28;20543;-80
2021/05/13 07:30:13;;;;;;;3.80;1.17;;;13.60;60.20;;;;;;5014341;28;20034;-81
2021/05/13 07:32:39;;;;;;;2.72;1.40;;;13.80;59.80;;;;;;5011436;28;20557;-76
2021/05/13 07:35:06;;;;;;;2.20;0.90;;;13.90;59.60;;;;;;5009997;28;20057;-74
2021/05/13 07:37:32;;;;;;;4.28;1.38;;;14.10;59.20;;;;;;5009878;28;20110;-78
2021/05/13 07:39:57;;;;;;;6.82;1.42;;;14.30;58.40;;;;;;5010082;28;20097;-77
2021/05/13 07:42:23;;;;;;;4.65;1.55;;;14.40;57.40;;;;;;5009907;28;20026;-77
2021/05/13 07:44:49;;;;;;;7.38;1.60;;;14.50;57.40;;;;;;5009829;28;20041;-75
2021/05/13 07:47:14;;;;;;;2.38;0.88;;;14.50;57.50;;;;;;5009864;28;20121;-76
2021/05/13 07:49:41;;;;;;;4.68;1.15;;;14.70;56.50;;;;;;5009825;28;20022;-76
2021/05/13 07:52:06;;;;;;;2.92;1.33;;;14.70;56.70;;;;;;5009751;28;20096;-75
2021/05/13 07:54:32;;;;;;;4.72;1.33;;;14.70;57.10;;;;;;5009759;28;20513;-75
2021/05/13 07:56:57;;;;;;;4.57;1.15;;;14.60;56.70;;;;;;5009760;28;20030;-74
2021/05/13 07:59:23;;;;;;;1.52;0.73;;;14.70;56.00;;;;;;5009804;28;20109;-74
2021/05/13 08:01:49;;;;;;;6.07;1.02;;;14.60;53.30;;;;;;5009808;28;20026;-75
2021/05/13 08:04:14;;;;;;;4.18;0.98;;;14.60;53.50;;;;;;5009781;28;20056;-76
2021/05/13 08:06:40;;;;;;;3.97;1.17;;;14.80;53.80;;;;;;5009635;28;20025;-76
2021/05/13 08:09:05;;;;;;;6.13;1.10;;;15.00;54.10;;;;;;5009604;28;20030;-77
2021/05/13 08:11:31;;;;;;;1.73;0.85;;;15.10;53.70;;;;;;5009674;28;20493;-77
2021/05/13 08:13:56;;;;;;;5.57;1.45;;;15.10;52.60;;;;;;5009560;28;20030;-78
2021/05/13 08:16:22;;;;;;;3.42;1.35;;;14.90;52.60;;;;;;5009622;28;20018;-74
2021/05/13 08:18:48;;;;;;;4.40;1.60;;;15.00;54.10;;;;;;5009438;28;20052;-73
2021/05/13 08:21:14;;;;;;;4.05;1.05;;;15.40;60.20;;;;;;5009489;28;20030;-74
2021/05/13 08:23:39;;;;;;;3.78;1.10;;;15.80;61.50;;;;;;5009502;28;20591;-73
2021/05/13 08:26:05;;;;;;;4.88;0.70;;;16.00;55.30;;;;;;5009522;28;20022;-73
2021/05/13 08:28:31;;;;;;;3.85;0.85;;;16.30;55.20;;;;;;5009393;28;20044;-73
2021/05/13 08:30:56;;;;;;;3.03;0.88;;;16.50;50.90;;;;;;5009595;28;20026;-73
2021/05/13 08:33:22;;;;;;;2.58;1.05;;;16.60;50.40;;;;;;5010809;28;20079;-73
2021/05/13 08:35:47;;;;;;;2.28;0.60;;;16.90;53.10;;;;;;5013002;28;20075;-73
2021/05/13 08:38:13;;;;;;;2.75;0.68;;;17.30;52.10;;;;;;5012770;28;20030;-75
2021/05/13 08:40:38;;;;;;;3.28;1.17;;;17.60;47.80;;;;;;5011669;28;20034;-75
2021/05/13 08:43:04;;;;;;;2.78;1.02;;;17.60;46.50;;;;;;5011482;28;20033;-75
2021/05/13 08:45:33;;;;;;;3.38;0.63;;;17.50;44.80;;;;;;5011438;28;20041;-75
2021/05/13 08:48:01;;;;;;;6.03;1.08;;;17.30;43.90;;;;;;5011311;28;20041;-74
2021/05/13 08:50:27;;;;;;;3.17;0.75;;;17.30;44.40;;;;;;5011257;28;20018;-75
2021/05/13 08:52:55;;;;;;;1.98;0.80;;;17.10;43.00;;;;;;5011453;28;20033;-75
2021/05/13 08:55:21;;;;;;;4.07;1.05;;;17.00;43.30;;;;;;5011584;28;20061;-75
2021/05/13 08:57:47;;;;;;;3.45;1.05;;;16.90;44.10;;;;;;5011169;28;20062;-75
2021/05/13 09:00:13;;;;;;;5.40;1.20;;;17.30;44.30;;;;;;5012456;28;20030;-75
2021/05/13 09:02:49;;;;;;;2.22;0.93;;;17.60;44.10;;;;;;5011288;28;20026;-75
2021/05/13 09:05:14;;;;;;;4.25;0.90;;;17.90;43.80;;;;;;5011252;28;20030;-73
2021/05/13 09:07:40;;;;;;;4.40;0.80;;;17.70;42.60;;;;;;5011129;28;20038;-75
2021/05/13 09:10:08;;;;;;;3.22;0.63;;;17.80;41.50;;;;;;5011098;28;20022;-75
2021/05/13 09:12:36;;;;;;;1.67;0.77;;;17.80;41.20;;;;;;5013434;28;20034;-76
2021/05/13 09:15:07;;;;;;;5.40;0.88;;;17.20;40.10;;;;;;5013938;28;20014;-75
2021/05/13 09:17:33;;;;;;;1.92;0.73;;;16.90;40.50;;;;;;5012177;28;20087;-75
2021/05/13 09:20:00;;;;;;;3.35;0.82;;;16.90;41.40;;;;;;5012171;28;20385;-75
2021/05/13 09:22:28;;;;;;;3.67;0.73;;;16.60;40.90;;;;;;5012173;28;20014;-76
2021/05/13 09:25:00;;;;;;;2.17;0.57;;;16.40;42.40;;;;;;5010934;28;20025;-74
2021/05/13 09:27:30;;;;;;;3.55;0.68;;;16.20;43.20;;;;;;5012029;28;20022;-75
2021/05/13 09:30:11;;;;;;;2.33;0.50;;;16.40;44.30;;;;;;5012159;28;20367;-76
2021/05/13 09:32:38;;;;;;;2.83;0.82;;;16.70;43.80;;;;;;5011959;28;20497;-74
2021/05/13 09:35:10;;;;;;;1.90;0.40;;;16.70;43.10;;;;;;5011905;28;20037;-72
2021/05/13 09:37:46;;;;;;;3.13;0.80;;;16.50;42.10;;;;;;5011826;28;20067;-73
2021/05/13 09:40:13;;;;;;;2.70;0.90;;;16.50;43.00;;;;;;5011624;28;20029;-72
2021/05/13 09:42:39;;;;;;;1.95;0.50;;;16.40;41.80;;;;;;5011623;28;20067;-72
2021/05/13 09:45:08;;;;;;;7.72;0.73;;;16.70;41.90;;;;;;5010748;28;20076;-72
2021/05/13 09:47:34;;;;;;;1.90;0.73;;;16.60;40.90;;;;;;5010668;28;20069;-72
2021/05/13 09:50:09;;;;;;;4.13;0.73;;;16.60;40.30;;;;;;5011385;28;20047;-73
2021/05/13 09:52:56;;;;;;;1.85;0.63;;;16.50;40.80;;;;;;5011463;28;20033;-74
2021/05/13 09:55:23;;;;;;;6.85;3.65;;;16.70;41.20;;;;;;5011513;28;20378;-73
2021/05/13 09:57:55;;;;;;;3.42;1.80;;;16.80;41.20;;;;;;5011600;28;20021;-74
2021/05/13 10:00:48;;;;;;;2.25;0.80;;;17.10;41.10;;;;;;5010115;28;20033;-73
2021/05/13 10:03:22;;;;;;;5.60;1.05;;;17.20;42.50;;;;;;5011442;28;20041;-73
2021/05/13 10:05:53;;;;;;;4.60;1.20;;;16.90;43.50;;;;;;5011519;28;20026;-74
2021/05/13 10:08:19;;;;;;;5.38;0.98;;;16.90;43.80;;;;;;5011282;28;20026;-73
2021/05/13 10:10:46;;;;;;;3.15;0.63;;;16.60;45.40;;;;;;5011329;28;20530;-73
2021/05/13 10:13:13;;;;;;;3.97;1.25;;;16.20;47.70;;;;;;5011230;28;20033;-73
2021/05/13 10:15:40;;;;;;;3.28;1.10;;;16.10;49.50;;;;;;5011221;28;20034;-73
2021/05/13 10:18:15;;;;;;;4.32;1.20;;;16.20;49.30;;;;;;5011103;28;20046;-73
2021/05/13 10:20:41;;;;;;;2.65;1.10;;;16.00;50.30;;;;;;5010984;28;20110;-72
2021/05/13 10:23:11;;;;;;;7.03;1.75;;;16.10;51.10;;;;;;5011156;28;20026;-74
2021/05/13 10:25:37;;;;;;;4.78;1.10;;;16.00;50.30;;;;;;5011146;28;20422;-74
2021/05/13 10:28:04;;;;;;;5.38;1.40;;;16.10;50.30;;;;;;5011150;28;20034;-74
2021/05/13 10:30:35;;;;;;;3.97;1.20;;;15.90;51.60;;;;;;5011121;28;20352;-73
2021/05/13 10:33:14;;;;;;;4.93;1.20;;;15.80;51.70;;;;;;5011064;28;20026;-73
2021/05/13 10:36:00;;;;;;;4.93;1.67;;;15.80;51.10;;;;;;5010937;28;20470;-73
2021/05/13 10:38:41;;;;;;;4.60;1.15;;;15.70;50.90;;;;;;5011015;28;21071;-73
2021/05/13 10:41:28;;;;;;;3.85;0.90;;;15.70;51.00;;;;;;5010918;28;20026;-74
2021/05/13 10:44:16;;;;;;;3.88;1.13;;;15.20;51.70;;;;;;5010604;28;20046;-74
2021/05/13 10:46:53;;;;;;;4.95;1.27;;;15.40;51.70;;;;;;5010983;28;20033;-74
2021/05/13 10:49:23;;;;;;;6.30;1.60;;;15.40;52.10;;;;;;5010742;28;20026;-74
2021/05/13 10:51:52;;;;;;;4.93;1.05;;;15.40;52.70;;;;;;5010717;28;20029;-76
2021/05/13 10:54:29;;;;;;;4.28;0.77;;;15.00;53.40;;;;;;5010738;28;20032;-77
2021/05/13 10:57:19;;;;;;;2.63;0.90;;;14.40;52.50;;;;;;5010820;28;20029;-78
2021/05/13 11:00:07;;;;;;;1.35;0.85;;;14.30;52.70;;;;;;5010597;28;20432;-80
2021/05/13 11:02:39;;;;;;;1.52;0.70;;;14.00;52.00;;;;;;5010571;28;20561;-78
2021/05/13 11:05:38;;;;;;;2.33;0.65;;;14.00;51.30;;;;;;5010448;28;20041;-78
2021/05/13 11:08:07;;;;;;;2.00;0.75;;;13.90;53.70;;;;;;5010215;28;20038;-76
2021/05/13 11:10:53;;;;;;;1.73;0.80;;;13.90;56.30;;;;;;5010237;28;20098;-74
2021/05/13 11:13:19;;;;;;;4.63;0.63;;;13.90;57.90;;;;;;5010348;28;20053;-76
2021/05/13 11:15:50;;;;;;;1.77;1.27;;;14.10;58.30;;;;;;5010326;28;20034;-78
2021/05/13 11:18:19;;;;;;;1.88;1.10;;;14.40;62.20;;;;;;5010401;28;20109;-76
2021/05/13 11:20:44;;;;;;;2.88;0.73;;;14.60;62.70;;;;;;5010373;28;20029;-83
2021/05/13 11:23:19;;;;;;;2.92;0.98;;;15.00;60.60;;;;;;5010149;28;20048;-78
2021/05/13 11:26:00;;;;;;;4.40;1.20;;;15.20;60.40;;;;;;5010371;28;20478;-83
2021/05/13 11:28:43;;;;;;;4.40;2.10;;;15.50;60.00;;;;;;5010384;28;20074;-79
2021/05/13 11:31:20;;;;;;;3.05;1.40;;;15.80;59.20;;;;;;5010417;28;20018;-78
2021/05/13 11:33:51;;;;;;;1.92;1.00;;;16.20;57.30;;;;;;5010455;28;20051;-77
2021/05/13 11:36:17;;;;;;;2.88;0.80;;;16.80;56.80;;;;;;5024419;28;20022;-78
2021/05/13 11:38:44;;;;;;;3.47;1.27;;;17.10;54.50;;;;;;5028013;28;20101;-77
2021/05/13 11:41:10;;;;;;;1.52;0.82;;;17.80;54.70;;;;;;5022423;28;20106;-80
2021/05/13 11:43:39;;;;;;;1.70;0.50;;;18.30;51.10;;;;;;5009925;28;20077;-81
2021/05/13 11:46:16;;;;;;;1.85;0.80;;;18.50;47.20;;;;;;5010151;28;20026;-82
2021/05/13 11:48:44;;;;;;;3.80;0.98;;;18.50;46.10;;;;;;5010308;28;20132;-83
2021/05/13 11:51:14;;;;;;;3.22;0.85;;;18.50;45.20;;;;;;5010861;28;20471;-76
2021/05/13 11:53:42;;;;;;;3.30;0.45;;;18.50;46.60;;;;;;5009990;28;20030;-77
2021/05/13 11:56:09;;;;;;;1.45;0.20;;;18.90;45.50;;;;;;5009989;28;20022;-75
2021/05/13 11:58:42;;;;;;;1.02;0.35;;;18.60;44.20;;;;;;5009954;28;20062;-75
2021/05/13 12:01:36;;;;;;;0.65;0.30;;;18.70;41.50;;;;;;5010233;28;20057;-75
2021/05/13 12:04:07;;;;;;;0.68;0.20;;;18.50;40.30;;;;;;5010028;28;20025;-74
2021/05/13 12:06:51;;;;;;;2.45;0.60;;;17.90;40.50;;;;;;5010011;28;20048;-75
2021/05/13 12:09:20;;;;;;;1.45;0.32;;;17.20;42.10;;;;;;5012651;28;20033;-78
2021/05/13 12:11:46;;;;;;;2.47;0.50;;;16.70;42.70;;;;;;5013313;28;20066;-75
2021/05/13 12:14:15;;;;;;;0.50;0.20;;;16.40;43.20;;;;;;5013079;28;20355;-74
2021/05/13 12:16:44;;;;;;;3.22;0.77;;;16.10;43.30;;;;;;5013220;28;20026;-74
2021/05/13 12:19:13;;;;;;;0.63;0.50;;;16.50;43.30;;;;;;5013193;28;20088;-75
2021/05/13 12:21:40;;;;;;;2.33;0.50;;;16.40;45.90;;;;;;5012997;28;20050;-75
2021/05/13 12:24:07;;;;;;;3.85;0.80;;;16.80;45.50;;;;;;5013123;28;20093;-77
2021/05/13 12:26:40;;;;;;;5.22;0.80;;;16.90;49.40;;;;;;5013024;28;20167;-76
2021/05/13 12:29:12;;;;;;;2.22;0.80;;;17.40;50.70;;;;;;5011777;28;20177;-77
2021/05/13 12:31:39;;;;;;;6.30;1.05;;;18.00;49.90;;;;;;5011943;28;20019;-73
2021/05/13 12:34:06;;;;;;;4.43;0.95;;;18.30;48.80;;;;;;5032713;28;20110;-78
2021/05/13 12:36:33;;;;;;;2.45;0.60;;;18.40;47.30;;;;;;5116292;28;20035;-76
2021/05/13 12:38:59;;;;;;;1.50;0.70;;;18.90;46.50;;;;;;5116251;28;20103;-74
2021/05/13 12:41:26;;;;;;;4.13;0.65;;;19.10;45.10;;;;;;5116239;28;20032;-73
2021/05/13 12:44:16;;;;;;;1.17;0.60;;;19.40;45.00;;;;;;5116071;28;20036;-74
2021/05/13 12:46:47;;;;;;;6.00;0.95;;;18.50;44.90;;;;;;5116246;28;20030;-74
2021/05/13 12:49:27;;;;;;;3.63;0.90;;;18.10;45.90;;;;;;5116228;28;20024;-75
2021/05/13 12:52:14;;;;;;;1.88;0.70;;;17.40;46.70;;;;;;5116274;28;20085;-75
2021/05/13 12:54:41;;;;;;;1.77;0.85;;;17.10;50.40;;;;;;5116152;28;20026;-77
2021/05/13 12:57:16;;;;;;;4.68;0.80;;;17.20;50.40;;;;;;5114667;28;20076;-74
2021/05/13 12:59:51;;;;;;;5.07;0.53;;;17.40;50.60;;;;;;5115975;28;20046;-76
2021/05/13 13:02:30;;;;;;;4.28;0.70;;;17.30;52.00;;;;;;5115948;28;20020;-77